• Join FlightAware (Why Join?)
  • Login
  • US Flag 
02:03AM EDT


 

Airport Tracker/Info


-or-


 

Live Flight TrackerFlight Track Log ✈ N121JM ✈ 24-Apr-2013 ✈ KILG - KPHL

Flight Track Log - Related Links

Times and Time Zones

All times are in EDT time to prevent confusion due to time zone crossing. See the N121JM flight status page for this flight to view local times or setup timezone preferences in your user account.

Time Position Orientation Groundspeed Altitude Reporting Facility
EDT Latitude Longitude Course Direction KTS MPH feet Rate Location/Type
06:47AM 39.6833 -75.6167 270° West 154 177 700  Level Philadelphia TRACON
06:47AM 39.6833 -75.6500 270° West 170 196 1,200 1,920 Climbing Philadelphia TRACON
06:48AM 39.6708 -75.6681 228° Southwest 181 208 2,100 2,100 Climbing FAA TRACON SMA TRACON (SMA)
06:48AM 39.6642 -75.6861 244° Southwest 180 207 2,800 1,320 Climbing FAA TRACON SMA TRACON (SMA)
06:48AM 39.6511 -75.6967 212° Southwest 196 226 3,000 300 Climbing FAA TRACON SMA TRACON (SMA)
06:49AM 39.6289 -75.6944 176° South 236 272 3,000  Level FAA TRACON SMA TRACON (SMA)
06:49AM 39.6147 -75.6772 137° Southeast 230 265 3,000  Level FAA TRACON SMA TRACON (SMA)
06:49AM 39.6081 -75.6519 109° East 251 289 3,000  Level FAA TRACON SMA TRACON (SMA)
06:50AM 39.6117 -75.6172 82° East 254 292 3,000  Level FAA TRACON SMA TRACON (SMA)
06:50AM 39.6164 -75.5914 77° East 240 276 3,000 120 Level FAA TRACON SMA TRACON (SMA)
06:50AM 39.6217 -75.5628 77° East 255 293 3,100  Climbing FAA TRACON SMA TRACON (SMA)
06:51AM 39.6275 -75.5261 78° East 263 303 3,000  Descending FAA TRACON SMA TRACON (SMA)
06:51AM 39.6325 -75.4967 78° East 271 312 3,100  Climbing FAA TRACON SMA TRACON (SMA)
06:51AM 39.6378 -75.4669 77° East 274 315 3,000 -180 Descending FAA TRACON SMA TRACON (SMA)
06:52AM 39.6436 -75.4289 79° East 281 323 3,000  Level FAA TRACON SMA TRACON (SMA)
06:52AM 39.6486 -75.3972 78° East 284 327 3,000  Level FAA TRACON SMA TRACON (SMA)
06:52AM 39.6525 -75.3658 81° East 284 327 3,000  Level FAA TRACON SMA TRACON (SMA)
06:53AM 39.6600 -75.3275 76° East 286 329 3,000  Level FAA TRACON SMA TRACON (SMA)
06:53AM 39.6650 -75.2967 78° East 286 329 3,000 120 Level FAA TRACON SMA TRACON (SMA)
06:53AM 39.6700 -75.2611 80° East 286 329 3,100  Climbing FAA TRACON SMA TRACON (SMA)
06:54AM 39.6758 -75.2275 77° East 283 326 3,000 -180 Descending FAA TRACON SMA TRACON (SMA)
06:54AM 39.6814 -75.1978 76° East 282 325 3,000 -180 Level FAA TRACON SMA TRACON (SMA)
06:54AM 39.6867 -75.1614 79° East 273 314 2,900 -660 Descending FAA TRACON SMA TRACON (SMA)
06:55AM 39.6989 -75.1372 57° Northeast 253 291 2,600 -960 Descending FAA TRACON SMA TRACON (SMA)
06:55AM 39.7172 -75.1247 28° Northeast 242 278 2,300 -600 Descending FAA TRACON SMA TRACON (SMA)
06:55AM 39.7394 -75.1275 355° North 217 250 2,200 -180 Descending FAA TRACON SMA TRACON (SMA)
06:56AM 39.7589 -75.1314 351° North 208 239 2,200 -180 Level FAA TRACON SMA TRACON (SMA)
06:56AM 39.7728 -75.1408 332° Northwest 186 214 2,100 -780 Descending FAA TRACON SMA TRACON (SMA)
06:56AM 39.7825 -75.1614 302° West 172 198 1,700 -1,080 Descending FAA TRACON SMA TRACON (SMA)
06:57AM 39.7864 -75.1794 286° West 160 184 1,400 -900 Descending FAA TRACON SMA TRACON (SMA)
06:57AM 39.7914 -75.1911 299° West 148 170 1,100 -600 Descending FAA TRACON SMA TRACON (SMA)
06:57AM 39.8083 -75.2000 338° Northwest 166 191 1,000 -480 Descending FAA TRACON SMA TRACON (SMA)
06:58AM 39.8214 -75.2025 352° North 155 178 800 -360 Descending FAA TRACON SMA TRACON (SMA)
06:58AM 39.8336 -75.2089 338° Northwest 155 178 800 -480 Level FAA TRACON SMA TRACON (SMA)
06:58AM 39.8481 -75.2164 338° Northwest 148 170 500 -780 Descending FAA TRACON SMA TRACON (SMA)
06:59AM 39.8600 -75.2228 338° Northwest 150 173 300 -600 Descending FAA TRACON SMA TRACON (SMA)
06:59AM 39.8686 -75.2269 340° North 148 170 100 -240 Descending FAA TRACON SMA TRACON (SMA)
07:00AM 39.8686 -75.2269 288° West 148 170 100  Level FAA TRACON SMA TRACON (SMA)
07:02AM 39.8667 -75.2333 30° Northeast  Level FlightAware Approximate
07:09AM 39.8722 -75.2409 30° Northeast  Level Estimated
07:10AM 39.8722 -75.2409 30° Northeast  Level Estimated
07:11AM 39.8722 -75.2409 30° Northeast  Level Estimated
07:12AM 39.8722 -75.2409 30° Northeast  Level Estimated
07:13AM 39.8722 -75.2409 30° Northeast  Level Estimated